createdAt,value
2022-12-08T00:02:05.303Z,4.20
2022-12-08T00:04:53.744Z,3.43
2022-12-08T00:07:40.592Z,3.60
2022-12-08T00:10:39.972Z,3.70
2022-12-08T00:12:58.572Z,3.50
2022-12-08T00:15:27.468Z,4.10
2022-12-08T00:17:56.353Z,4.20
2022-12-08T00:20:24.809Z,4.30
2022-12-08T00:22:54.562Z,4.13
2022-12-08T00:25:23.060Z,4.00
2022-12-08T00:27:51.722Z,4.73
2022-12-08T00:30:20.412Z,5.30
2022-12-08T00:32:49.177Z,4.77
2022-12-08T00:35:17.922Z,4.60
2022-12-08T00:37:47.708Z,5.13
2022-12-08T00:40:18.116Z,5.20
2022-12-08T00:42:46.740Z,4.70
2022-12-08T00:45:15.375Z,5.13
2022-12-08T00:47:43.828Z,4.30
2022-12-08T00:50:12.459Z,4.40
2022-12-08T00:52:41.074Z,4.60
2022-12-08T00:55:10.244Z,4.30
2022-12-08T00:57:40.036Z,4.50
2022-12-08T01:00:09.532Z,4.17
2022-12-08T01:02:37.819Z,4.30
2022-12-08T01:05:06.926Z,3.97
2022-12-08T01:07:35.383Z,3.83
2022-12-08T01:10:05.259Z,3.90
2022-12-08T01:12:33.798Z,3.43
2022-12-08T01:15:03.912Z,3.43
2022-12-08T01:17:32.353Z,3.07
2022-12-08T01:20:02.540Z,3.87
2022-12-08T01:22:31.195Z,2.97
2022-12-08T01:24:59.560Z,2.80
2022-12-08T01:27:28.251Z,2.80
2022-12-08T01:29:56.866Z,3.10
2022-12-08T01:32:26.651Z,2.60
2022-12-08T01:34:55.025Z,2.90
2022-12-08T01:37:23.357Z,2.23
2022-12-08T01:39:52.006Z,2.53
2022-12-08T01:42:22.105Z,2.97
2022-12-08T01:44:57.029Z,2.63
2022-12-08T01:47:31.315Z,2.30
2022-12-08T01:49:59.766Z,2.43
2022-12-08T01:52:32.582Z,2.40
2022-12-08T01:55:05.334Z,2.63
2022-12-08T01:57:36.598Z,2.83
2022-12-08T02:00:08.696Z,2.40
2022-12-08T02:02:44.376Z,3.00
2022-12-08T02:05:13.814Z,2.60
2022-12-08T02:07:42.704Z,2.67
2022-12-08T02:10:13.520Z,2.90
2022-12-08T02:12:42.004Z,2.33
2022-12-08T02:15:11.295Z,2.43
2022-12-08T02:17:50.933Z,2.47
2022-12-08T02:20:25.448Z,2.50
2022-12-08T02:23:03.078Z,2.70
2022-12-08T02:25:41.690Z,2.97
2022-12-08T02:28:33.339Z,2.33
2022-12-08T02:31:09.753Z,2.63
2022-12-08T02:34:14.837Z,2.40
2022-12-08T02:36:50.706Z,2.10
2022-12-08T02:39:36.362Z,2.83
2022-12-08T02:42:10.319Z,2.60
2022-12-08T02:44:42.519Z,2.50
2022-12-08T02:47:14.068Z,2.37
2022-12-08T02:49:44.071Z,2.37
2022-12-08T02:52:39.475Z,1.77
2022-12-08T02:55:11.289Z,2.30
2022-12-08T02:57:49.643Z,2.27
2022-12-08T03:00:19.085Z,2.13
2022-12-08T03:02:57.942Z,1.80
2022-12-08T03:05:49.965Z,2.13
2022-12-08T03:08:23.028Z,1.80
2022-12-08T03:10:54.789Z,2.60
2022-12-08T03:13:25.935Z,2.03
2022-12-08T03:15:55.281Z,1.77
2022-12-08T03:18:26.483Z,2.10
2022-12-08T03:20:56.365Z,1.93
2022-12-08T03:23:26.354Z,1.90
2022-12-08T03:26:01.076Z,2.20
2022-12-08T03:28:29.639Z,2.47
2022-12-08T03:31:01.316Z,2.17
2022-12-08T03:33:32.665Z,2.00
2022-12-08T03:36:03.506Z,2.67
2022-12-08T03:38:39.762Z,2.23
2022-12-08T03:41:20.377Z,2.20
2022-12-08T03:43:49.675Z,2.20
2022-12-08T03:46:18.544Z,2.47
2022-12-08T03:48:47.154Z,2.50
2022-12-08T03:51:18.015Z,2.53
2022-12-08T03:53:47.200Z,2.60
2022-12-08T03:56:25.948Z,3.20
2022-12-08T03:58:54.898Z,2.57
2022-12-08T04:01:23.545Z,2.40
2022-12-08T04:03:52.526Z,2.90
2022-12-08T04:06:23.253Z,2.80
2022-12-08T04:08:52.225Z,2.67
2022-12-08T04:11:21.147Z,3.50
2022-12-08T04:13:50.307Z,3.60
2022-12-08T04:16:20.774Z,3.33
2022-12-08T04:18:49.446Z,3.93
2022-12-08T04:21:18.004Z,3.40
2022-12-08T04:23:48.300Z,3.50
2022-12-08T04:26:16.631Z,3.67
2022-12-08T04:28:45.887Z,3.63
2022-12-08T04:31:14.723Z,4.00
2022-12-08T04:33:43.275Z,4.60
2022-12-08T04:36:11.840Z,3.53
2022-12-08T04:38:40.270Z,3.10
2022-12-08T04:41:10.277Z,3.60
2022-12-08T04:43:38.929Z,3.70
2022-12-08T04:46:09.635Z,3.87
2022-12-08T04:48:39.538Z,3.37
2022-12-08T04:51:08.910Z,2.80
2022-12-08T04:53:39.911Z,3.67
2022-12-08T04:56:14.635Z,2.83
2022-12-08T04:58:43.312Z,3.00
2022-12-08T05:01:11.806Z,3.10
2022-12-08T05:03:40.284Z,2.70
2022-12-08T05:06:09.126Z,3.10
2022-12-08T05:08:37.480Z,4.00
2022-12-08T05:11:07.006Z,3.20
2022-12-08T05:13:36.877Z,2.77
2022-12-08T05:16:07.163Z,3.00
2022-12-08T05:18:36.207Z,2.83
2022-12-08T05:21:04.781Z,3.17
2022-12-08T05:23:33.327Z,3.70
2022-12-08T05:26:01.586Z,3.50
2022-12-08T05:28:41.460Z,3.43
2022-12-08T05:31:12.334Z,2.70
2022-12-08T05:33:41.152Z,2.90
2022-12-08T05:36:10.143Z,2.93
2022-12-08T05:38:38.724Z,3.10
2022-12-08T05:41:07.731Z,4.13
2022-12-08T05:43:36.108Z,3.90
2022-12-08T05:46:04.780Z,4.67
2022-12-08T05:48:34.559Z,5.43
2022-12-08T05:51:03.394Z,4.60
2022-12-08T05:53:32.006Z,3.00
2022-12-08T05:56:00.589Z,3.73
2022-12-08T05:58:29.350Z,3.57
2022-12-08T06:00:57.828Z,3.00
2022-12-08T06:03:26.326Z,3.10
2022-12-08T06:05:56.183Z,2.97
2022-12-08T06:08:24.917Z,2.93
2022-12-08T06:10:53.378Z,2.30
2022-12-08T06:13:21.931Z,2.83
2022-12-08T06:15:50.514Z,2.80
2022-12-08T06:18:18.860Z,2.70
2022-12-08T06:20:47.798Z,3.67
2022-12-08T06:23:17.714Z,3.40
2022-12-08T06:25:46.215Z,3.00
2022-12-08T06:28:14.776Z,3.20
2022-12-08T06:30:43.173Z,2.90
2022-12-08T06:33:11.674Z,3.40
2022-12-08T06:35:40.322Z,2.80
2022-12-08T06:38:09.409Z,3.80
2022-12-08T06:40:39.251Z,3.93
2022-12-08T06:43:07.852Z,3.97
2022-12-08T06:45:36.249Z,4.03
2022-12-08T06:48:05.320Z,3.97
2022-12-08T06:50:35.202Z,4.97
2022-12-08T06:53:05.654Z,4.20
2022-12-08T06:55:57.907Z,5.13
2022-12-08T06:58:24.867Z,4.60
2022-12-08T07:00:53.779Z,5.47
2022-12-08T07:03:22.594Z,5.43
2022-12-08T07:05:51.119Z,5.37
2022-12-08T07:08:19.871Z,4.77
2022-12-08T07:10:48.556Z,5.00
2022-12-08T07:13:17.319Z,5.93
2022-12-08T07:15:47.189Z,5.50
2022-12-08T07:18:15.584Z,6.20
2022-12-08T07:20:43.962Z,5.80
2022-12-08T07:23:12.419Z,5.80
2022-12-08T07:25:40.816Z,6.40
2022-12-08T07:28:10.989Z,5.47
2022-12-08T07:30:40.092Z,6.10
2022-12-08T07:33:10.141Z,5.33
2022-12-08T07:35:38.560Z,6.03
2022-12-08T07:38:07.087Z,8.93
2022-12-08T07:40:35.765Z,6.07
2022-12-08T07:43:04.480Z,6.00
2022-12-08T07:45:32.860Z,6.60
2022-12-08T07:48:01.394Z,5.50
2022-12-08T07:50:31.104Z,6.30
2022-12-08T07:52:59.591Z,6.13
2022-12-08T07:55:28.745Z,6.40
2022-12-08T07:57:57.321Z,6.63
2022-12-08T08:00:25.838Z,6.53
2022-12-08T08:02:54.330Z,6.97
2022-12-08T08:05:23.734Z,6.53
2022-12-08T08:07:53.563Z,5.90
2022-12-08T08:10:22.253Z,6.90
2022-12-08T08:12:51.205Z,6.70
2022-12-08T08:15:21.313Z,7.20
2022-12-08T08:17:52.104Z,6.73
2022-12-08T08:20:20.959Z,6.40
2022-12-08T08:22:50.676Z,7.37
2022-12-08T08:25:22.687Z,6.97
2022-12-08T08:27:51.601Z,7.70
2022-12-08T08:30:21.180Z,7.07
2022-12-08T08:32:49.960Z,6.87
2022-12-08T08:35:18.708Z,7.37
2022-12-08T08:37:49.094Z,7.23
2022-12-08T08:40:18.771Z,7.37
2022-12-08T08:42:48.493Z,6.53
2022-12-08T08:45:16.934Z,6.70
2022-12-08T08:47:45.734Z,6.80
2022-12-08T08:50:14.235Z,6.53
2022-12-08T08:52:43.638Z,5.97
2022-12-08T08:55:12.106Z,7.20
2022-12-08T08:57:40.576Z,7.13
2022-12-08T09:00:12.033Z,7.90
2022-12-08T09:02:40.648Z,7.33
2022-12-08T09:05:10.069Z,6.83
2022-12-08T09:07:38.702Z,6.87
2022-12-08T09:10:09.013Z,6.53
2022-12-08T09:12:37.645Z,6.43
2022-12-08T09:15:06.998Z,6.50
2022-12-08T09:17:36.966Z,5.77
2022-12-08T09:20:06.830Z,5.87
2022-12-08T09:22:36.046Z,5.63
2022-12-08T09:25:04.655Z,5.90
2022-12-08T09:27:34.071Z,5.83
2022-12-08T09:30:02.955Z,5.80
2022-12-08T09:32:31.689Z,5.60
2022-12-08T09:35:01.506Z,6.87
2022-12-08T09:37:29.925Z,6.30
2022-12-08T09:39:58.360Z,6.23
2022-12-08T09:42:32.800Z,5.60
2022-12-08T09:45:06.925Z,4.80
2022-12-08T09:47:40.426Z,5.37
2022-12-08T09:50:14.456Z,4.97
2022-12-08T09:52:45.466Z,5.33
2022-12-08T09:55:21.645Z,4.80
2022-12-08T09:57:56.604Z,5.37
2022-12-08T10:00:25.661Z,4.37
2022-12-08T10:02:54.365Z,5.13
2022-12-08T10:05:25.862Z,4.60
2022-12-08T10:08:04.567Z,4.80
2022-12-08T10:10:40.110Z,4.80
2022-12-08T10:13:15.709Z,4.87
2022-12-08T10:15:48.780Z,6.17
2022-12-08T10:18:20.346Z,4.90
2022-12-08T10:20:51.576Z,5.60
2022-12-08T10:23:26.983Z,4.93
2022-12-08T10:26:02.146Z,5.00
2022-12-08T10:28:32.107Z,5.40
2022-12-08T10:31:00.669Z,5.17
2022-12-08T10:33:30.544Z,5.83
2022-12-08T10:36:03.110Z,5.47
2022-12-08T10:38:33.760Z,5.40
2022-12-08T10:41:06.318Z,5.67
2022-12-08T10:43:35.514Z,6.10
2022-12-08T10:46:12.302Z,5.10
2022-12-08T10:48:50.479Z,5.43
2022-12-08T10:51:30.019Z,4.70
2022-12-08T10:53:59.472Z,4.47
2022-12-08T10:56:29.546Z,6.80
2022-12-08T10:59:18.924Z,5.00
2022-12-08T11:01:49.289Z,4.43
2022-12-08T11:04:19.979Z,4.83
2022-12-08T11:06:51.121Z,4.60
2022-12-08T11:09:34.038Z,5.00
2022-12-08T11:12:08.744Z,5.20
2022-12-08T11:14:50.097Z,4.60
2022-12-08T11:17:25.492Z,5.13
2022-12-08T11:19:59.419Z,4.87
2022-12-08T11:22:32.483Z,5.67
2022-12-08T11:25:03.613Z,4.27
2022-12-08T11:27:33.696Z,4.70
2022-12-08T11:30:03.414Z,4.00
2022-12-08T11:32:32.552Z,5.50
2022-12-08T11:35:03.615Z,5.17
2022-12-08T11:37:36.070Z,4.37
2022-12-08T11:40:08.009Z,4.17
2022-12-08T11:42:47.962Z,4.57
2022-12-08T11:45:21.925Z,4.40
2022-12-08T11:47:56.248Z,4.60
2022-12-08T11:50:29.139Z,4.43
2022-12-08T11:52:59.946Z,4.20
2022-12-08T11:55:37.116Z,4.47
2022-12-08T11:58:16.201Z,4.03
2022-12-08T12:00:45.080Z,4.30
2022-12-08T12:03:22.428Z,3.63
2022-12-08T12:06:38.130Z,3.83
2022-12-08T12:09:14.058Z,4.37
2022-12-08T12:12:06.635Z,4.53
2022-12-08T12:15:01.684Z,4.80
2022-12-08T12:17:42.995Z,4.67
2022-12-08T12:20:17.720Z,5.07
2022-12-08T12:22:49.619Z,5.30
2022-12-08T12:25:22.721Z,4.90
2022-12-08T12:27:57.118Z,5.67
2022-12-08T12:30:27.479Z,5.40
2022-12-08T12:32:58.470Z,5.23
2022-12-08T12:35:34.695Z,5.27
2022-12-08T12:38:25.982Z,4.77
2022-12-08T12:41:01.215Z,4.63
2022-12-08T12:43:33.462Z,5.17
2022-12-08T12:46:41.152Z,5.00
2022-12-08T12:49:48.854Z,4.40
2022-12-08T12:52:39.167Z,4.27
2022-12-08T12:55:49.604Z,5.00
2022-12-08T12:58:39.029Z,4.93
2022-12-08T13:01:39.785Z,4.97
2022-12-08T13:04:09.443Z,5.40
2022-12-08T13:06:41.355Z,5.70
2022-12-08T13:09:21.638Z,5.77
2022-12-08T13:11:52.693Z,5.73
2022-12-08T13:14:36.888Z,5.17
2022-12-08T13:17:09.887Z,5.83
2022-12-08T13:19:40.101Z,5.43
2022-12-08T13:22:45.308Z,6.30
2022-12-08T13:25:51.365Z,6.70
2022-12-08T13:28:25.588Z,6.20
2022-12-08T13:30:56.432Z,8.47
2022-12-08T13:33:30.763Z,7.17
2022-12-08T13:36:07.020Z,7.13
2022-12-08T13:38:36.970Z,6.83
2022-12-08T13:41:10.509Z,6.57
2022-12-08T13:44:02.216Z,6.50
2022-12-08T13:56:37.517Z,6.07
2022-12-08T13:58:08.406Z,6.20
2022-12-08T14:00:36.877Z,6.17
2022-12-08T14:03:06.918Z,5.53
2022-12-08T14:06:11.222Z,5.40
2022-12-08T14:08:58.285Z,5.63
2022-12-08T14:11:34.796Z,5.40
2022-12-08T14:14:05.170Z,6.40
2022-12-08T14:16:38.950Z,6.80
2022-12-08T14:19:18.152Z,7.37
2022-12-08T14:21:54.362Z,6.63
2022-12-08T14:24:24.347Z,7.00
2022-12-08T14:26:54.689Z,6.80
2022-12-08T14:29:40.922Z,7.43
2022-12-08T14:32:24.974Z,6.50
2022-12-08T14:34:58.802Z,6.50
2022-12-08T14:37:28.872Z,7.43
2022-12-08T14:40:01.908Z,8.07
2022-12-08T14:42:31.647Z,7.83
2022-12-08T14:45:02.571Z,7.13
2022-12-08T14:47:32.781Z,7.70
2022-12-08T14:50:03.771Z,7.53
2022-12-08T14:52:32.833Z,7.27
2022-12-08T14:55:01.314Z,7.43
2022-12-08T14:57:35.214Z,7.63
2022-12-08T15:00:21.199Z,7.00
2022-12-08T15:02:49.787Z,6.57
2022-12-08T15:05:21.608Z,6.33
2022-12-08T15:07:52.313Z,7.13
2022-12-08T15:10:26.716Z,6.60
2022-12-08T15:13:03.503Z,7.10
2022-12-08T15:15:32.878Z,7.13
2022-12-08T15:18:13.603Z,7.73
2022-12-08T15:20:45.209Z,6.83
2022-12-08T15:23:27.110Z,6.43
2022-12-08T15:25:56.339Z,6.47
2022-12-08T15:28:30.089Z,7.17
2022-12-08T15:30:59.737Z,6.90
2022-12-08T15:33:28.818Z,7.13
2022-12-08T15:35:58.806Z,6.93
2022-12-08T15:38:28.929Z,6.83
2022-12-08T15:40:58.841Z,7.10
2022-12-08T15:43:28.171Z,7.57
2022-12-08T15:46:00.068Z,8.20
2022-12-08T15:48:30.544Z,6.70
2022-12-08T15:51:00.732Z,9.00
2022-12-08T15:53:29.264Z,7.10
2022-12-08T15:56:26.318Z,9.20
2022-12-08T15:58:56.018Z,8.93
2022-12-08T16:01:25.899Z,9.53
2022-12-08T16:09:38.722Z,8.47
2022-12-08T16:12:29.504Z,8.77
2022-12-08T16:17:58.736Z,8.30
2022-12-08T16:20:43.958Z,8.57
2022-12-08T16:23:34.564Z,7.83
2022-12-08T16:26:54.712Z,9.67
2022-12-08T16:28:55.033Z,9.70
2022-12-08T16:31:23.759Z,9.13
2022-12-08T16:33:52.713Z,9.00
2022-12-08T16:36:21.434Z,8.63
2022-12-08T16:38:51.155Z,8.43
2022-12-08T16:41:37.251Z,10.27
2022-12-08T16:44:06.770Z,13.83
2022-12-08T16:46:36.063Z,18.77
2022-12-08T16:49:04.657Z,15.90
2022-12-08T16:51:33.059Z,12.20
2022-12-08T16:54:03.626Z,14.60
2022-12-08T16:56:33.641Z,14.20
2022-12-08T16:59:02.968Z,11.30
2022-12-08T17:01:31.661Z,9.03
2022-12-08T17:06:50.916Z,6.90
2022-12-08T17:09:20.761Z,8.97
2022-12-08T17:11:49.455Z,7.20
2022-12-08T17:14:18.036Z,8.37
2022-12-08T17:16:46.995Z,7.57
2022-12-08T17:19:16.043Z,9.07
2022-12-08T17:21:45.209Z,8.53
2022-12-08T17:24:17.122Z,9.17
2022-12-08T17:26:51.663Z,8.67
2022-12-08T17:29:20.579Z,8.60
2022-12-08T17:31:49.266Z,8.50
2022-12-08T17:34:17.988Z,7.80
2022-12-08T17:36:46.398Z,9.97
2022-12-08T17:39:18.811Z,7.63
2022-12-08T17:41:49.279Z,8.37
2022-12-08T17:44:19.097Z,8.30
2022-12-08T17:46:52.657Z,8.03
2022-12-08T17:49:24.628Z,8.10
2022-12-08T17:51:55.048Z,8.03
2022-12-08T17:54:23.710Z,7.03
2022-12-08T17:56:54.110Z,7.17
2022-12-08T17:59:22.402Z,7.57
2022-12-08T18:01:50.775Z,7.63
2022-12-08T18:04:19.338Z,7.93
2022-12-08T18:06:48.144Z,7.90
2022-12-08T18:09:18.073Z,8.03
2022-12-08T18:11:47.239Z,8.47
2022-12-08T18:14:17.563Z,8.97
2022-12-08T18:16:47.659Z,7.67
2022-12-08T18:19:17.112Z,7.83
2022-12-08T18:21:45.539Z,5.90
2022-12-08T18:24:18.946Z,6.53
2022-12-08T18:26:47.551Z,7.00
2022-12-08T18:29:17.643Z,6.80
2022-12-08T18:31:46.065Z,7.50
2022-12-08T18:34:14.703Z,8.87
2022-12-08T18:36:43.401Z,9.90
2022-12-08T18:39:22.307Z,10.37
2022-12-08T18:41:50.906Z,11.67
2022-12-08T18:44:21.044Z,9.37
2022-12-08T18:46:49.836Z,10.87
2022-12-08T18:49:20.007Z,12.73
2022-12-08T18:51:48.544Z,14.37
2022-12-08T18:54:17.083Z,9.20
2022-12-08T18:56:45.691Z,8.93
2022-12-08T18:59:14.570Z,7.33
2022-12-08T19:01:44.620Z,6.23
2022-12-08T19:04:28.505Z,6.27
2022-12-08T19:06:58.175Z,6.07
2022-12-08T19:09:29.026Z,6.07
2022-12-08T19:11:58.077Z,6.30
2022-12-08T19:14:28.424Z,6.67
2022-12-08T19:16:58.547Z,5.80
2022-12-08T19:19:27.898Z,5.07
2022-12-08T19:21:56.414Z,6.40
2022-12-08T19:24:24.982Z,6.13
2022-12-08T19:26:53.813Z,5.83
2022-12-08T19:29:22.246Z,7.10
2022-12-08T19:31:50.732Z,7.27
2022-12-08T19:34:20.780Z,7.03
2022-12-08T19:36:49.456Z,6.77
2022-12-08T19:39:37.604Z,7.33
2022-12-08T19:42:27.757Z,7.43
2022-12-08T19:44:56.269Z,7.53
2022-12-08T19:47:25.994Z,6.77
2022-12-08T19:50:16.736Z,6.80
2022-12-08T19:52:45.573Z,6.87
2022-12-08T19:55:14.427Z,6.57
2022-12-08T19:57:43.130Z,9.97
2022-12-08T20:00:13.597Z,6.27
2022-12-08T20:02:42.408Z,6.50
2022-12-08T20:05:14.122Z,6.30
2022-12-08T20:07:43.007Z,6.60
2022-12-08T20:10:16.444Z,6.53
2022-12-08T20:12:45.187Z,7.27
2022-12-08T20:15:14.930Z,6.40
2022-12-08T20:17:43.876Z,7.03
2022-12-08T20:20:15.263Z,6.57
2022-12-08T20:22:45.342Z,6.77
2022-12-08T20:25:14.302Z,6.47
2022-12-08T20:27:43.289Z,7.27
2022-12-08T20:30:16.964Z,7.27
2022-12-08T20:32:46.206Z,7.17
2022-12-08T20:35:16.278Z,8.10
2022-12-08T20:37:44.957Z,6.30
2022-12-08T20:40:13.980Z,6.80
2022-12-08T20:42:42.309Z,6.80
2022-12-08T20:45:11.554Z,7.17
2022-12-08T20:47:40.120Z,9.53
2022-12-08T20:50:10.159Z,6.37
2022-12-08T20:52:40.607Z,6.67
2022-12-08T20:55:10.271Z,6.10
2022-12-08T20:57:38.911Z,5.73
2022-12-08T21:00:09.185Z,5.30
2022-12-08T21:02:45.129Z,5.30
2022-12-08T21:05:16.442Z,5.00
2022-12-08T21:07:46.900Z,3.90
2022-12-08T21:10:15.914Z,5.83
2022-12-08T21:12:44.606Z,5.90
2022-12-08T21:15:13.671Z,5.10
2022-12-08T21:17:42.599Z,4.37
2022-12-08T21:20:11.993Z,5.63
2022-12-08T21:22:41.237Z,5.43
2022-12-08T21:25:11.657Z,5.77
2022-12-08T21:27:40.621Z,5.53
2022-12-08T21:30:10.978Z,5.27
2022-12-08T21:32:40.941Z,6.07
2022-12-08T21:35:10.408Z,6.67
2022-12-08T21:37:39.017Z,7.30
2022-12-08T21:40:08.965Z,6.00
2022-12-08T21:42:45.609Z,5.97
2022-12-08T21:45:16.823Z,6.33
2022-12-08T21:47:46.461Z,6.73
2022-12-08T21:50:15.515Z,7.30
2022-12-08T21:52:45.825Z,6.07
2022-12-08T21:55:14.720Z,6.60
2022-12-08T21:57:44.784Z,7.27
2022-12-08T22:00:17.314Z,7.20
2022-12-08T22:02:46.314Z,7.00
2022-12-08T22:05:14.980Z,7.13
2022-12-08T22:07:43.847Z,7.17
2022-12-08T22:10:12.799Z,6.87
2022-12-08T22:12:42.123Z,7.03
2022-12-08T22:15:12.849Z,6.67
2022-12-08T22:17:44.193Z,7.10
2022-12-08T22:20:15.479Z,7.20
2022-12-08T22:22:45.951Z,7.63
2022-12-08T22:25:14.575Z,8.03
2022-12-08T22:27:43.176Z,7.70
2022-12-08T22:30:14.442Z,8.13
2022-12-08T22:32:43.207Z,7.40
2022-12-08T22:35:12.074Z,7.50
2022-12-08T22:37:40.835Z,8.83
2022-12-08T22:40:11.467Z,8.50
2022-12-08T22:42:40.365Z,9.23
2022-12-08T22:45:10.454Z,9.63
2022-12-08T22:47:40.631Z,8.83
2022-12-08T22:50:09.860Z,8.07
2022-12-08T22:52:39.668Z,9.00
2022-12-08T22:55:09.967Z,8.37
2022-12-08T22:57:38.767Z,9.40
2022-12-08T23:00:11.548Z,9.37
2022-12-08T23:02:42.553Z,7.90
2022-12-08T23:05:11.974Z,8.60
2022-12-08T23:07:41.237Z,9.53
2022-12-08T23:10:11.624Z,8.83
2022-12-08T23:12:40.333Z,8.97
2022-12-08T23:15:09.760Z,9.70
2022-12-08T23:17:39.139Z,9.17
2022-12-08T23:20:10.692Z,8.97
2022-12-08T23:22:39.400Z,9.63
2022-12-08T23:25:09.162Z,10.73
2022-12-08T23:27:38.677Z,9.00
2022-12-08T23:30:09.992Z,8.73
2022-12-08T23:32:39.308Z,9.30
2022-12-08T23:35:10.007Z,8.70
2022-12-08T23:37:39.259Z,9.00
2022-12-08T23:40:09.623Z,9.80
2022-12-08T23:42:38.907Z,10.30
2022-12-08T23:45:09.604Z,10.53
2022-12-08T23:47:38.069Z,9.57
2022-12-08T23:50:10.087Z,8.53
2022-12-08T23:52:39.954Z,9.40
2022-12-08T23:55:10.149Z,9.30
2022-12-08T23:57:39.136Z,9.97
